• Join FlightAware (Why Join?)
  • Login
  • US Flag 
05:47PM EDT


 

Airport Tracker/Info


-or-


 

Live Flight TrackerFlight Track Log ✈ SWA17 ✈ 06-Oct-2013 ✈ KBOS - KHOU

Flight Track Log - Related Links

Times and Time Zones

All times are in EDT time to prevent confusion due to time zone crossing. See the SWA17 flight status page for this flight to view local times or setup timezone preferences in your user account.

Time Position Orientation Groundspeed Altitude Reporting Facility
EDT Latitude Longitude Course Direction KTS MPH feet Rate Location/Type
08:28AM 42.3667 -70.9667 90° East 162 186 1,300  Level KA90
08:29AM 42.3667 -70.9333 90° East 206 237 2,500 2,040 Climbing KA90
08:30AM 42.3833 -70.8500 75° East 274 315 4,800 2,700 Climbing KA90
08:32AM 42.3394 -70.7239 115° Southeast 296 341 9,700 3,000 Climbing Boston Center
08:33AM 42.2628 -70.7483 193° South 240 276 12,700 3,000 Climbing Boston Center
08:34AM 42.2247 -70.8533 244° Southwest 214 246 15,800 2,700 Climbing Boston Center
08:35AM 42.2031 -70.9492 253° West 257 296 18,100 1,620 Climbing Boston Center
08:36AM 42.1775 -71.0644 253° West 309 356 19,000 1,320 Climbing Boston Center
08:37AM 42.1519 -71.2022 256° West 351 404 20,800 1,920 Climbing Boston Center
08:38AM 42.1219 -71.3428 254° West 381 438 22,900 1,920 Climbing Boston Center
08:39AM 42.0922 -71.4833 254° West 395 455 24,800 1,860 Climbing Boston Center
08:40AM 42.0494 -71.6461 251° West 407 468 26,600 1,560 Climbing Boston Center
08:41AM 42.0150 -71.8003 253° West 420 483 27,900 1,380 Climbing Boston Center
08:42AM 41.9783 -71.9597 253° West 438 504 29,500 1,680 Climbing Boston Center
08:43AM 41.9414 -72.1164 252° West 445 512 31,300 1,560 Climbing Boston Center
08:44AM 41.9083 -72.2531 252° West 440 506 32,700 1,320 Climbing Boston Center
08:45AM 41.8731 -72.4039 253° West 440 506 34,000 600 Climbing Boston Center
08:46AM 41.8397 -72.5544 253° West 440 506 34,000  Level Boston Center
08:47AM 41.8083 -72.6992 254° West 424 488 34,000  Level Boston Center
08:48AM 41.7578 -72.8436 245° Southwest 424 488 34,000  Level Boston Center
08:49AM 41.6842 -72.9711 232° Southwest 424 488 34,000 660 Level Boston Center
08:50AM 41.6147 -73.1008 234° Southwest 435 501 35,300 960 Climbing Boston Center
08:51AM 41.5453 -73.2250 233° Southwest 435 501 36,000 300 Climbing Boston Center
08:52AM 41.4778 -73.3517 235° Southwest 430 495 36,000  Level Boston Center
08:54AM 41.3094 -73.6603 234° Southwest 430 495 36,000  Level New York Center
08:55AM 41.2419 -73.7869 235° Southwest 430 495 36,000  Level New York Center
08:56AM 41.1678 -73.9133 232° Southwest 430 495 36,000  Level New York Center
08:57AM 41.0997 -74.0394 234° Southwest 430 495 36,000  Level New York Center
08:58AM 41.0272 -74.1681 233° Southwest 430 495 36,000  Level New York Center
08:59AM 40.9550 -74.2881 231° Southwest 430 495 36,000  Level New York Center
09:00AM 40.8844 -74.4161 234° Southwest 435 501 36,000  Level New York Center
09:01AM 40.8119 -74.5408 233° Southwest 435 501 36,000  Level New York Center
09:02AM 40.7411 -74.6686 234° Southwest 435 501 36,000  Level New York Center
09:03AM 40.6658 -74.7956 232° Southwest 441 507 36,000  Level New York Center
09:04AM 40.5947 -74.9225 234° Southwest 441 507 36,000  Level New York Center
09:05AM 40.5236 -75.0467 233° Southwest 441 507 36,000  Level New York Center
09:06AM 40.4525 -75.1703 233° Southwest 446 513 36,000  Level New York Center
09:07AM 40.3767 -75.2989 232° Southwest 446 513 36,000  Level New York Center
09:08AM 40.3053 -75.4194 232° Southwest 446 513 36,000  Level New York Center
09:09AM 40.2358 -75.5453 234° Southwest 439 505 36,000  Level New York Center
09:10AM 40.1633 -75.6872 236° Southwest 439 505 36,000  Level New York Center
09:11AM 40.0994 -75.8128 236° Southwest 429 494 36,000  Level New York Center
09:12AM 40.0358 -75.9383 237° Southwest 424 488 36,000  Level New York Center
09:13AM 39.9678 -76.0633 235° Southwest 424 488 36,000 60 Level New York Center
09:14AM 39.8994 -76.1881 234° Southwest 424 488 36,200 720 Climbing New York Center
09:15AM 39.8231 -76.3067 230° Southwest 429 494 37,500 900 Climbing New York Center
09:16AM 39.7447 -76.4192 228° Southwest 429 494 38,000 240 Climbing New York Center
09:17AM 39.6747 -76.5269 230° Southwest 428 493 38,000  Level Washington Center
09:18AM 39.5986 -76.6419 229° Southwest 409 471 38,000  Level Washington Center
09:19AM 39.5142 -76.7669 229° Southwest 415 478 38,000  Level Washington Center
09:20AM 39.4381 -76.8814 229° Southwest 420 483 38,000  Level Washington Center
09:21AM 39.3617 -76.9981 230° Southwest 425 489 38,000  Level Washington Center
09:22AM 39.2831 -77.1147 229° Southwest 425 489 38,000  Level Washington Center
09:23AM 39.2067 -77.2281 229° Southwest 425 489 38,000  Level Washington Center
09:24AM 39.1278 -77.3442 229° Southwest 430 495 38,000  Level Washington Center
09:25AM 39.0511 -77.4572 229° Southwest 430 495 38,000  Level Washington Center
09:26AM 38.9700 -77.5753 229° Southwest 431 496 38,000  Level Washington Center
09:27AM 38.8994 -77.6800 229° Southwest 431 496 38,000  Level Washington Center
09:28AM 38.8161 -77.8003 228° Southwest 434 499 38,000  Level Washington Center
09:29AM 38.7408 -77.9100 229° Southwest 434 499 38,000  Level Washington Center
09:30AM 38.6636 -78.0217 228° Southwest 429 494 38,000  Level Washington Center
09:31AM 38.5864 -78.1361 229° Southwest 429 494 38,000  Level Washington Center
09:32AM 38.5067 -78.2475 228° Southwest 429 494 38,000  Level Washington Center
09:33AM 38.4311 -78.3589 229° Southwest 429 494 38,000  Level Washington Center
09:34AM 38.3514 -78.4722 228° Southwest 429 494 38,000  Level Washington Center
09:35AM 38.2714 -78.5936 230° Southwest 418 481 38,000  Level Washington Center
09:36AM 38.1911 -78.7092 229° Southwest 418 481 38,000  Level Washington Center
09:37AM 38.1131 -78.8194 228° Southwest 423 487 38,000  Level Washington Center
09:38AM 38.0394 -78.9192 227° Southwest 428 493 38,000  Level Washington Center
09:39AM 37.9614 -79.0289 228° Southwest 428 493 38,000  Level Washington Center
09:40AM 37.8850 -79.1439 230° Southwest 428 493 38,000  Level Washington Center
09:41AM 37.8183 -79.2828 239° Southwest 428 493 38,000  Level Washington Center
09:42AM 37.7558 -79.4108 238° Southwest 428 493 38,000  Level Washington Center
09:43AM 37.6892 -79.5361 236° Southwest 428 493 38,000  Level Washington Center
09:44AM 37.6311 -79.6486 237° Southwest 434 499 38,000  Level Washington Center
09:45AM 37.5617 -79.7889 238° Southwest 429 494 38,000  Level Washington Center
09:48AM 37.3906 -80.1208 237° Southwest 420 483 38,000  Level Atlanta Center
09:49AM 37.3278 -80.2442 237° Southwest 425 489 38,000  Level Atlanta Center
09:50AM 37.2689 -80.3592 237° Southwest 446 513 38,000  Level Atlanta Center
09:51AM 37.2019 -80.4953 238° Southwest 446 513 38,000  Level Atlanta Center
09:52AM 37.1406 -80.6072 235° Southwest 440 506 38,000  Level Atlanta Center
09:53AM 37.0692 -80.7431 237° Southwest 440 506 38,000  Level Atlanta Center
09:54AM 37.0058 -80.8678 238° Southwest 435 501 38,000  Level Atlanta Center
09:55AM 36.9464 -80.9897 239° Southwest 430 495 38,000  Level Atlanta Center
09:56AM 36.8825 -81.1142 237° Southwest 430 495 38,000  Level Atlanta Center
09:57AM 36.8267 -81.2225 237° Southwest 430 495 38,000  Level Atlanta Center
09:58AM 36.7589 -81.3569 238° Southwest 425 489 38,000  Level Atlanta Center
09:59AM 36.6947 -81.4833 238° Southwest 420 483 38,000  Level Atlanta Center
10:00AM 36.6367 -81.5939 237° Southwest 425 489 38,000  Level Atlanta Center
10:01AM 36.5722 -81.7200 238° Southwest 425 489 38,000  Level Atlanta Center
10:02AM 36.5100 -81.8458 238° Southwest 435 501 38,000  Level Atlanta Center
10:03AM 36.4411 -81.9664 235° Southwest 435 501 38,000  Level Atlanta Center
10:04AM 36.3764 -82.0892 237° Southwest 435 501 38,000  Level Atlanta Center
10:05AM 36.3117 -82.2144 237° Southwest 435 501 38,000  Level Atlanta Center
10:06AM 36.2467 -82.3369 237° Southwest 435 501 38,000  Level Atlanta Center
10:07AM 36.1817 -82.4592 237° Southwest 430 495 38,000  Level Atlanta Center
10:08AM 36.1103 -82.5917 236° Southwest 425 489 38,000  Level Atlanta Center
10:09AM 36.0450 -82.7161 237° Southwest 425 489 38,000  Level Atlanta Center
10:10AM 35.9794 -82.8378 236° Southwest 425 489 38,000  Level Atlanta Center
10:11AM 35.9139 -82.9594 236° Southwest 425 489 38,000  Level Atlanta Center
10:12AM 35.8500 -83.0806 237° Southwest 425 489 38,000  Level Atlanta Center
10:13AM 35.7842 -83.2017 236° Southwest 425 489 38,000  Level Atlanta Center
10:14AM 35.7264 -83.3097 237° Southwest 417 480 38,000  Level Atlanta Center
10:15AM 35.6625 -83.4278 236° Southwest 422 486 38,000  Level Atlanta Center
10:16AM 35.5964 -83.5458 235° Southwest 422 486 38,000  Level Atlanta Center
10:17AM 35.5319 -83.6636 236° Southwest 422 486 38,000  Level Atlanta Center
10:18AM 35.4678 -83.7811 236° Southwest 422 486 38,000  Level Atlanta Center
10:19AM 35.4031 -83.8986 236° Southwest 422 486 38,000  Level Atlanta Center
10:20AM 35.3406 -84.0133 236° Southwest 422 486 38,000  Level Atlanta Center
10:21AM 35.2758 -84.1278 235° Southwest 422 486 38,000  Level Atlanta Center
10:22AM 35.2092 -84.2472 236° Southwest 422 486 38,000  Level Atlanta Center
10:23AM 35.1461 -84.3614 236° Southwest 422 486 38,000  Level Atlanta Center
10:24AM 35.0811 -84.4778 236° Southwest 417 480 38,000  Level Atlanta Center
10:25AM 35.0161 -84.5917 235° Southwest 417 480 38,000  Level Atlanta Center
10:26AM 34.9464 -84.7178 236° Southwest 417 480 38,000  Level Atlanta Center
10:27AM 34.8811 -84.8314 235° Southwest 417 480 38,000  Level Atlanta Center
10:28AM 34.8136 -84.9469 235° Southwest 417 480 38,000  Level Atlanta Center
10:29AM 34.7500 -85.0600 236° Southwest 417 480 38,000  Level Atlanta Center
10:30AM 34.6844 -85.1731 235° Southwest 417 480 38,000  Level Atlanta Center
10:31AM 34.6228 -85.2908 238° Southwest 417 480 38,000  Level Atlanta Center
10:32AM 34.5733 -85.4111 243° Southwest 417 480 38,000  Level Atlanta Center
10:33AM 34.5219 -85.5364 244° Southwest 412 474 38,000  Level Atlanta Center
10:34AM 34.4703 -85.6614 243° Southwest 412 474 38,000  Level Atlanta Center
10:35AM 34.4186 -85.7789 242° Southwest 405 466 38,000  Level Atlanta Center
10:36AM 34.3689 -85.8986 243° Southwest 405 466 38,000  Level Atlanta Center
10:37AM 34.3147 -86.0206 242° Southwest 405 466 38,000  Level Atlanta Center
10:38AM 34.2606 -86.1450 242° Southwest 405 466 38,000  Level Atlanta Center
10:39AM 34.2083 -86.2667 243° Southwest 405 466 38,000  Level Atlanta Center
10:40AM 34.1539 -86.3883 242° Southwest 405 466 38,000  Level Atlanta Center
10:41AM 34.1014 -86.5097 242° Southwest 405 466 38,000  Level Atlanta Center
10:42AM 34.0489 -86.6311 242° Southwest 405 466 38,000  Level Atlanta Center
10:43AM 33.9961 -86.7522 242° Southwest 405 466 38,000  Level Atlanta Center
10:44AM 33.9392 -86.8731 240° Southwest 405 466 38,000  Level Atlanta Center
10:45AM 33.8883 -86.9917 243° Southwest 405 466 38,000  Level Atlanta Center
10:47AM 33.7489 -87.3019 242° Southwest 405 466 38,000  Level Memphis Center
10:48AM 33.6975 -87.4211 243° Southwest 400 460 38,000  Level Memphis Center
10:49AM 33.6461 -87.5400 243° Southwest 400 460 38,000  Level Memphis Center
10:50AM 33.5964 -87.6589 243° Southwest 400 460 38,000  Level Memphis Center
10:51AM 33.5531 -87.7797 247° West 400 460 38,000  Level Memphis Center
10:52AM 33.5078 -87.9058 247° West 400 460 38,000  Level Memphis Center
10:53AM 33.4664 -88.0314 248° West 405 466 38,000  Level Memphis Center
10:54AM 33.4225 -88.1544 247° West 405 466 38,000  Level Memphis Center
10:55AM 33.3892 -88.2672 251° West 405 466 38,000  Level Memphis Center
10:56AM 33.3494 -88.3950 250° West 405 466 38,000  Level Memphis Center
10:57AM 33.3117 -88.5203 250° West 410 472 38,000  Level Memphis Center
10:58AM 33.2678 -88.6628 250° West 417 480 38,000  Level Memphis Center
10:59AM 33.2278 -88.7878 249° West 417 480 38,000  Level Memphis Center
11:00AM 33.1917 -88.9150 251° West 412 474 38,000  Level Memphis Center
11:01AM 33.1533 -89.0397 250° West 412 474 38,000  Level Memphis Center
11:02AM 33.1128 -89.1617 248° West 412 474 38,000  Level Memphis Center
11:03AM 33.0658 -89.2839 245° Southwest 412 474 38,000  Level Memphis Center
11:04AM 33.0042 -89.3961 237° Southwest 407 468 38,000  Level Memphis Center
11:05AM 32.9425 -89.5083 237° Southwest 412 474 38,000  Level Memphis Center
11:06AM 32.8783 -89.6200 236° Southwest 412 474 38,000  Level Memphis Center
11:07AM 32.8144 -89.7369 237° Southwest 418 481 38,000  Level Memphis Center
11:08AM 32.7564 -89.8411 236° Southwest 418 481 38,000  Level Memphis Center
11:09AM 32.6942 -89.9597 238° Southwest 418 481 38,000  Level Memphis Center
11:10AM 32.6339 -90.0736 238° Southwest 418 481 38,000  Level Memphis Center
11:11AM 32.5717 -90.1847 236° Southwest 418 481 38,000  Level Memphis Center
11:12AM 32.5092 -90.2981 237° Southwest 418 481 38,000  Level Memphis Center
11:13AM 32.4403 -90.4214 237° Southwest 418 481 38,000  Level Memphis Center
11:14AM 32.3794 -90.5319 237° Southwest 418 481 38,000  Level Memphis Center
11:15AM 32.3208 -90.6375 237° Southwest 412 474 38,000  Level Memphis Center
11:16AM 32.2600 -90.7456 236° Southwest 412 474 38,000  Level Memphis Center
11:17AM 32.2183 -90.8239 238° Southwest 390 449 38,000  Level Houston Center
11:18AM 32.1581 -90.9306 236° Southwest 391 450 38,000  Level Houston Center
11:19AM 32.0989 -91.0361 237° Southwest 388 447 38,000  Level Houston Center
11:20AM 32.0272 -91.1617 236° Southwest 385 443 38,000  Level Houston Center
11:21AM 31.9678 -91.2664 236° Southwest 386 444 38,000  Level Houston Center
11:22AM 31.9083 -91.3731 237° Southwest 388 447 38,000  Level Houston Center
11:23AM 31.8472 -91.4792 236° Southwest 391 450 38,000  Level Houston Center
11:24AM 31.7861 -91.5872 236° Southwest 395 455 38,000  Level Houston Center
11:25AM 31.7256 -91.6942 236° Southwest 394 453 38,000  Level Houston Center
11:26AM 31.6633 -91.8003 235° Southwest 395 455 38,000  Level Houston Center
11:27AM 31.5897 -91.9283 236° Southwest 395 455 38,000  Level Houston Center
11:28AM 31.5289 -92.0336 236° Southwest 394 453 38,000  Level Houston Center
11:29AM 31.4633 -92.1403 234° Southwest 400 460 38,000  Level Houston Center
11:30AM 31.4014 -92.2450 235° Southwest 394 453 38,000  Level Houston Center
11:31AM 31.3422 -92.3533 237° Southwest 392 451 38,000  Level Houston Center
11:32AM 31.2797 -92.4561 235° Southwest 394 453 38,000  Level Houston Center
11:33AM 31.2281 -92.5675 242° Southwest 393 452 38,000  Level Houston Center
11:35AM 31.1867 -92.6881 248° West 398 458 38,000  Level Houston Center
11:36AM 31.1347 -92.8281 247° West 393 452 38,000  Level Houston Center
11:37AM 31.0917 -92.9436 247° West 390 449 38,000  Level Houston Center
11:38AM 31.0492 -93.0597 247° West 391 450 38,000  Level Houston Center
11:39AM 31.0061 -93.1747 246° West 388 447 38,000  Level Houston Center
11:40AM 30.9633 -93.2886 246° West 387 445 38,000  Level Houston Center
11:41AM 30.9208 -93.4019 246° West 384 442 38,000  Level Houston Center
11:42AM 30.8708 -93.5364 247° West 380 437 38,000 -300 Level Houston Center
11:43AM 30.8297 -93.6483 247° West 380 437 37,400 -1,140 Descending Houston Center
11:44AM 30.7889 -93.7578 247° West 374 430 35,700 -2,280 Descending Houston Center
11:45AM 30.7456 -93.8700 246° West 380 437 32,700 -2,640 Descending Houston Center
11:46AM 30.7006 -93.9883 246° West 396 456 30,300 -2,520 Descending Houston Center
11:47AM 30.6506 -94.1153 245° Southwest 396 456 27,800 -2,760 Descending Houston Center
11:47AM 30.6469 -94.1281 252° West 399 459 27,500 -2,340 Descending Houston Center
11:48AM 30.6025 -94.2408 245° Southwest 391 450 25,200 -2,280 Descending Houston Center
11:48AM 30.5972 -94.2536 244° Southwest 387 445 25,000 -2,160 Descending Houston Center
11:49AM 30.5597 -94.3544 247° West 388 447 23,000 -2,400 Descending Houston Center
11:49AM 30.5519 -94.3714 242° Southwest 382 440 22,600 -2,520 Descending Houston Center
11:50AM 30.5161 -94.4658 246° West 383 441 20,400 -2,460 Descending Houston Center
11:50AM 30.5103 -94.4811 246° West 382 440 20,100 -2,040 Descending Houston Center
11:51AM 30.4581 -94.5750 237° Southwest 371 427 18,300 -2,100 Descending Houston Center
11:51AM 30.4439 -94.5967 233° Southwest 368 423 17,800 -2,040 Descending Houston Center
11:52AM 30.4006 -94.6647 234° Southwest 364 419 16,200 -2,160 Descending Houston Center
11:52AM 30.3889 -94.6811 230° Southwest 359 413 15,800 -1,920 Descending Houston Center
11:53AM 30.3425 -94.7547 234° Southwest 352 405 14,300 -1,620 Descending Houston Center
11:53AM 30.3303 -94.7711 229° Southwest 342 394 14,200 -1,020 Descending Houston Center
11:54AM 30.2889 -94.8386 235° Southwest 328 377 13,300 -1,140 Descending Houston Center
11:54AM 30.2772 -94.8528 226° Southwest 320 368 13,100 -1,200 Descending Houston Center
11:55AM 30.2261 -94.9356 234° Southwest 316 364 12,100 -1,020 Descending Houston Center
11:56AM 30.1692 -95.0211 232° Southwest 314 361 11,100 -1,020 Descending Houston Center
11:56AM 30.1728 -95.0161 50° Northeast 316 364 11,100 -1,080 Level Houston Center
11:57AM 30.1106 -95.0817 222° Southwest 304 350 10,000 -600 Descending Houston Center
11:58AM 30.0342 -95.1144 200° South 295 339 9,900 -60 Descending Houston Center
11:59AM 29.9547 -95.1489 201° Southwest 303 349 9,900  Level Houston Center
11:59AM 29.9361 -95.1561 199° South 303 349 9,900 -420 Level Houston Center
12:00PM 29.8792 -95.1817 201° Southwest 294 338 9,500 -720 Descending Houston Center
12:00PM 29.8614 -95.1894 201° Southwest 293 337 9,200 -1,680 Descending Houston Center
12:01PM 29.7903 -95.2192 200° South 287 330 7,800 -1,260 Descending Houston Center
12:02PM 29.7142 -95.2339 190° South 284 327 6,800 -1,080 Descending Houston Center
12:02PM 29.7139 -95.2344 240° Southwest 282 325 6,700 -600 Descending Houston Center
12:03PM 29.6408 -95.2356 181° South 251 289 6,200 -540 Descending Houston Center
12:03PM 29.6408 -95.2364 270° West 270 311 6,200 -180 Level Houston Center
12:04PM 29.5764 -95.2400 183° South 247 284 6,000 -420 Descending Houston Center
12:05PM 29.5167 -95.2878 215° Southwest 223 257 5,400 -660 Descending Houston Center
12:06PM 29.4803 -95.3367 229° Southwest 220 253 4,800 -600 Descending Houston Center
12:06PM 29.4794 -95.3419 260° West 226 260 4,800 -660 Level Houston Center
12:07PM 29.5086 -95.3933 303° West 176 203 4,100 -720 Descending Houston Center
12:07PM 29.5081 -95.3922 120° Southeast 192 221 4,100 -900 Level Houston Center
12:08PM 29.5497 -95.3836 10° North 142 163 3,200 -780 Descending Houston Center
12:09PM 29.5494 -95.3844 249° West 161 185 3,300 -1,200 Climbing Houston Center
12:09PM 29.5783 -95.3536 43° Northeast 131 151 2,000 -1,320 Descending Houston Center
12:10PM 29.5772 -95.3539 192° South 141 162 2,000 -900 Level Houston Center
12:10PM 29.6011 -95.3269 44° Northeast 113 130 1,100 -900 Descending Houston Center
12:11PM 29.6011 -95.3275 270° West 130 150 1,100 -720 Level Houston Center
12:12PM 29.6317 -95.2944 43° Northeast 137 158 300 -720 Descending Houston Center
12:12PM 29.6264 -95.2997 221° Southwest 126 145 400 -240 Climbing Houston Center
12:13PM 29.6586 -95.2650 43° Northeast 128 147 100 -300 Descending Houston Center